Forside
METAR-TAF:

METAR-TAF

Lufthavne :

Osaka, Japan

Breddekreds: 34-47N, længdekreds: 135-27E, højde: 12 m

Aktuelle vejr

Denne rapport blev lavet for 4 timer og 34 minutter siden, kl. 11:06 UTC
Vind 14 kt fra nordnordvest
Temperatur 16°C
Fugtighed 59%
Tryk 1015 hPa
Sigt 10 km eller mere
Nogle få skyer i en højde af 4000 ft

METAR: RJOO 081106Z 33014KT 9999 FEW040 16/08 Q1015 RMK 1CU040 A2997

Tid: 00:40 (15:40 UTC)

Vejrudsigter

Denne rapport blev lavet for 4 timer og 31 minutter siden, kl. 11:09 UTC
Foreløbig gælder fra 08 på 12 UTC til 09 på 18 UTC
Vind 12 kt fra nordnordvest
Sigt 10 km eller mere
Nogle få skyer i en højde af 2500 ft
Spredte skyer i en højde af 4000 ft
ændring
fra 09 på 00 UTC til 09 på 03 UTC
Vind 7 kt fra sydvest
ændring
fra 09 på 09 UTC til 09 på 12 UTC
Vind 10 kt fra nordnordvest

TAF: RJOO 081109Z 0812/0918 34012KT 9999 FEW025 SCT040 BECMG 0900/0903 22007KT BECMG 0909/0912 34010KT

Vejrobservationer og prognoser fra mere end 4000 lufthavne (METAR og TAF).

De gule og røde prikker repræsenterer de meteorologiske stationer.

Flyt musen over at se navnet på stationen.

Så klik over at se vejr observationer og prognoser.

At skifte det kort: Klik på de grønne knapper med et sort kors for at zoome ind; på den grønne knap med en bindestreg for at zoome ud; eller på de grønne pile for tilstødende kort.


METAR-TAF: